sensor_id;sensor_type;location;lat;lon;timestamp;P1;durP1;ratioP1;P2;durP2;ratioP2
836;SDS011;400;53.550;9.932;2024-03-22T00:00:03;12.60;;;11.37;;
836;SDS011;400;53.550;9.932;2024-03-22T00:02:32;12.87;;;11.60;;
836;SDS011;400;53.550;9.932;2024-03-22T00:04:59;16.90;;;12.10;;
836;SDS011;400;53.550;9.932;2024-03-22T00:07:26;14.03;;;12.40;;
836;SDS011;400;53.550;9.932;2024-03-22T00:09:51;12.67;;;11.37;;
836;SDS011;400;53.550;9.932;2024-03-22T00:12:18;12.53;;;11.20;;
836;SDS011;400;53.550;9.932;2024-03-22T00:14:44;12.20;;;10.70;;
836;SDS011;400;53.550;9.932;2024-03-22T00:17:11;14.30;;;12.23;;
836;SDS011;400;53.550;9.932;2024-03-22T00:19:38;14.40;;;12.27;;
836;SDS011;400;53.550;9.932;2024-03-22T00:22:05;17.10;;;12.80;;
836;SDS011;400;53.550;9.932;2024-03-22T00:24:31;13.23;;;10.67;;
836;SDS011;400;53.550;9.932;2024-03-22T00:26:58;13.40;;;11.70;;
836;SDS011;400;53.550;9.932;2024-03-22T00:29:24;10.97;;;9.87;;
836;SDS011;400;53.550;9.932;2024-03-22T00:31:52;13.53;;;12.13;;
836;SDS011;400;53.550;9.932;2024-03-22T00:34:18;13.60;;;12.20;;
836;SDS011;400;53.550;9.932;2024-03-22T00:36:46;14.60;;;12.37;;
836;SDS011;400;53.550;9.932;2024-03-22T00:39:12;15.03;;;12.27;;
836;SDS011;400;53.550;9.932;2024-03-22T00:41:39;12.43;;;11.23;;
836;SDS011;400;53.550;9.932;2024-03-22T00:44:05;13.17;;;11.67;;
836;SDS011;400;53.550;9.932;2024-03-22T00:46:32;15.50;;;12.50;;
836;SDS011;400;53.550;9.932;2024-03-22T00:48:57;16.73;;;12.77;;
836;SDS011;400;53.550;9.932;2024-03-22T00:51:25;15.97;;;12.13;;
836;SDS011;400;53.550;9.932;2024-03-22T00:53:52;13.67;;;12.37;;
836;SDS011;400;53.550;9.932;2024-03-22T00:56:19;18.50;;;12.27;;
836;SDS011;400;53.550;9.932;2024-03-22T00:58:45;15.73;;;12.60;;
836;SDS011;400;53.550;9.932;2024-03-22T01:01:14;18.40;;;11.80;;
836;SDS011;400;53.550;9.932;2024-03-22T01:03:40;14.73;;;11.97;;
836;SDS011;400;53.550;9.932;2024-03-22T01:06:06;15.13;;;13.10;;
836;SDS011;400;53.550;9.932;2024-03-22T01:08:32;14.10;;;12.13;;
836;SDS011;400;53.550;9.932;2024-03-22T01:11:00;15.33;;;12.70;;
836;SDS011;400;53.550;9.932;2024-03-22T01:13:26;15.07;;;13.47;;
836;SDS011;400;53.550;9.932;2024-03-22T01:15:53;15.77;;;13.93;;
836;SDS011;400;53.550;9.932;2024-03-22T01:18:19;13.90;;;12.50;;
836;SDS011;400;53.550;9.932;2024-03-22T01:20:45;12.90;;;11.60;;
836;SDS011;400;53.550;9.932;2024-03-22T01:23:11;14.43;;;13.03;;
836;SDS011;400;53.550;9.932;2024-03-22T01:25:38;14.60;;;12.43;;
836;SDS011;400;53.550;9.932;2024-03-22T01:28:05;13.97;;;12.47;;
836;SDS011;400;53.550;9.932;2024-03-22T01:30:32;14.43;;;12.77;;
836;SDS011;400;53.550;9.932;2024-03-22T01:32:59;14.27;;;12.10;;
836;SDS011;400;53.550;9.932;2024-03-22T01:35:26;18.37;;;11.80;;
836;SDS011;400;53.550;9.932;2024-03-22T01:37:52;14.20;;;12.70;;
836;SDS011;400;53.550;9.932;2024-03-22T01:40:18;14.90;;;12.17;;
836;SDS011;400;53.550;9.932;2024-03-22T01:42:44;16.30;;;14.67;;
836;SDS011;400;53.550;9.932;2024-03-22T01:45:13;15.97;;;14.30;;
836;SDS011;400;53.550;9.932;2024-03-22T01:47:39;16.63;;;14.30;;
836;SDS011;400;53.550;9.932;2024-03-22T01:50:08;19.00;;;15.70;;
836;SDS011;400;53.550;9.932;2024-03-22T01:52:37;21.00;;;16.30;;
836;SDS011;400;53.550;9.932;2024-03-22T01:55:05;16.87;;;15.07;;
836;SDS011;400;53.550;9.932;2024-03-22T01:57:32;17.70;;;14.87;;
836;SDS011;400;53.550;9.932;2024-03-22T02:00:00;21.67;;;14.90;;
836;SDS011;400;53.550;9.932;2024-03-22T02:02:27;18.73;;;16.73;;
836;SDS011;400;53.550;9.932;2024-03-22T02:04:57;19.47;;;15.23;;
836;SDS011;400;53.550;9.932;2024-03-22T02:07:23;19.57;;;15.80;;
836;SDS011;400;53.550;9.932;2024-03-22T02:09:50;16.67;;;14.97;;
836;SDS011;400;53.550;9.932;2024-03-22T02:12:16;16.70;;;14.90;;
836;SDS011;400;53.550;9.932;2024-03-22T02:14:43;16.80;;;14.97;;
836;SDS011;400;53.550;9.932;2024-03-22T02:19:59;19.20;;;16.23;;
836;SDS011;400;53.550;9.932;2024-03-22T02:22:25;22.13;;;16.67;;
836;SDS011;400;53.550;9.932;2024-03-22T02:24:54;18.23;;;15.97;;
836;SDS011;400;53.550;9.932;2024-03-22T02:27:19;19.87;;;17.77;;
836;SDS011;400;53.550;9.932;2024-03-22T02:29:46;18.77;;;16.77;;
836;SDS011;400;53.550;9.932;2024-03-22T02:32:12;19.03;;;16.93;;
836;SDS011;400;53.550;9.932;2024-03-22T02:34:39;21.63;;;17.87;;
836;SDS011;400;53.550;9.932;2024-03-22T02:37:05;19.30;;;16.23;;
836;SDS011;400;53.550;9.932;2024-03-22T02:39:32;20.80;;;16.50;;
836;SDS011;400;53.550;9.932;2024-03-22T02:41:59;22.07;;;17.90;;
836;SDS011;400;53.550;9.932;2024-03-22T02:44:26;19.80;;;17.70;;
836;SDS011;400;53.550;9.932;2024-03-22T02:46:52;19.70;;;17.60;;
836;SDS011;400;53.550;9.932;2024-03-22T02:49:19;19.63;;;17.57;;
836;SDS011;400;53.550;9.932;2024-03-22T02:51:44;21.60;;;19.30;;
836;SDS011;400;53.550;9.932;2024-03-22T02:54:12;23.80;;;17.57;;
836;SDS011;400;53.550;9.932;2024-03-22T02:56:38;23.80;;;19.93;;
836;SDS011;400;53.550;9.932;2024-03-22T02:59:06;26.40;;;19.60;;
836;SDS011;400;53.550;9.932;2024-03-22T03:01:31;21.37;;;18.80;;
836;SDS011;400;53.550;9.932;2024-03-22T03:03:58;24.50;;;20.50;;
836;SDS011;400;53.550;9.932;2024-03-22T03:06:24;22.60;;;19.80;;
836;SDS011;400;53.550;9.932;2024-03-22T03:08:51;30.07;;;21.27;;
836;SDS011;400;53.550;9.932;2024-03-22T03:11:16;26.93;;;22.30;;
836;SDS011;400;53.550;9.932;2024-03-22T03:13:43;29.90;;;21.10;;
836;SDS011;400;53.550;9.932;2024-03-22T03:16:10;26.67;;;22.73;;
836;SDS011;400;53.550;9.932;2024-03-22T03:18:37;28.03;;;22.20;;
836;SDS011;400;53.550;9.932;2024-03-22T03:21:03;27.30;;;22.17;;
836;SDS011;400;53.550;9.932;2024-03-22T03:23:30;26.33;;;23.13;;
836;SDS011;400;53.550;9.932;2024-03-22T03:25:56;25.60;;;22.80;;
836;SDS011;400;53.550;9.932;2024-03-22T03:28:23;26.80;;;22.27;;
836;SDS011;400;53.550;9.932;2024-03-22T03:30:51;26.20;;;23.33;;
836;SDS011;400;53.550;9.932;2024-03-22T03:33:19;27.03;;;22.60;;
836;SDS011;400;53.550;9.932;2024-03-22T03:35:45;26.73;;;23.57;;
836;SDS011;400;53.550;9.932;2024-03-22T03:38:12;25.93;;;22.67;;
836;SDS011;400;53.550;9.932;2024-03-22T03:40:39;29.63;;;24.20;;
836;SDS011;400;53.550;9.932;2024-03-22T03:43:07;29.83;;;24.20;;
836;SDS011;400;53.550;9.932;2024-03-22T03:45:35;27.87;;;22.90;;
836;SDS011;400;53.550;9.932;2024-03-22T03:48:04;30.23;;;25.23;;
836;SDS011;400;53.550;9.932;2024-03-22T03:50:31;29.60;;;25.73;;
836;SDS011;400;53.550;9.932;2024-03-22T03:52:58;34.67;;;26.57;;
836;SDS011;400;53.550;9.932;2024-03-22T03:55:24;30.30;;;26.40;;
836;SDS011;400;53.550;9.932;2024-03-22T03:57:50;32.20;;;25.70;;
836;SDS011;400;53.550;9.932;2024-03-22T04:00:18;31.77;;;25.43;;
836;SDS011;400;53.550;9.932;2024-03-22T04:02:49;33.57;;;27.33;;
836;SDS011;400;53.550;9.932;2024-03-22T04:05:21;32.63;;;25.93;;
836;SDS011;400;53.550;9.932;2024-03-22T04:07:51;33.10;;;26.17;;
836;SDS011;400;53.550;9.932;2024-03-22T04:10:17;35.03;;;28.40;;
836;SDS011;400;53.550;9.932;2024-03-22T04:12:44;34.43;;;27.50;;
836;SDS011;400;53.550;9.932;2024-03-22T04:15:10;35.10;;;26.60;;
836;SDS011;400;53.550;9.932;2024-03-22T04:17:37;33.93;;;28.47;;
836;SDS011;400;53.550;9.932;2024-03-22T04:20:03;31.70;;;26.47;;
836;SDS011;400;53.550;9.932;2024-03-22T04:22:30;34.50;;;28.80;;
836;SDS011;400;53.550;9.932;2024-03-22T04:24:58;32.60;;;26.30;;
836;SDS011;400;53.550;9.932;2024-03-22T04:27:25;34.23;;;27.67;;
836;SDS011;400;53.550;9.932;2024-03-22T04:29:50;38.17;;;30.57;;
836;SDS011;400;53.550;9.932;2024-03-22T04:32:17;34.60;;;27.07;;
836;SDS011;400;53.550;9.932;2024-03-22T04:34:43;35.30;;;27.10;;
836;SDS011;400;53.550;9.932;2024-03-22T04:37:10;32.30;;;27.27;;
836;SDS011;400;53.550;9.932;2024-03-22T04:39:37;36.83;;;28.80;;
836;SDS011;400;53.550;9.932;2024-03-22T04:42:07;34.43;;;27.47;;
836;SDS011;400;53.550;9.932;2024-03-22T04:44:34;35.77;;;26.90;;
836;SDS011;400;53.550;9.932;2024-03-22T04:47:00;32.27;;;25.67;;
836;SDS011;400;53.550;9.932;2024-03-22T04:49:29;34.73;;;28.97;;
836;SDS011;400;53.550;9.932;2024-03-22T04:51:57;33.27;;;27.77;;
836;SDS011;400;53.550;9.932;2024-03-22T04:54:25;33.60;;;27.53;;
836;SDS011;400;53.550;9.932;2024-03-22T04:56:51;32.33;;;26.90;;
836;SDS011;400;53.550;9.932;2024-03-22T04:59:19;34.60;;;27.63;;
836;SDS011;400;53.550;9.932;2024-03-22T05:01:45;39.87;;;29.43;;
836;SDS011;400;53.550;9.932;2024-03-22T05:04:11;37.10;;;29.30;;
836;SDS011;400;53.550;9.932;2024-03-22T05:06:37;32.70;;;26.53;;
836;SDS011;400;53.550;9.932;2024-03-22T05:09:04;35.87;;;29.37;;
836;SDS011;400;53.550;9.932;2024-03-22T05:11:30;34.33;;;27.07;;
836;SDS011;400;53.550;9.932;2024-03-22T05:13:57;35.53;;;26.60;;
836;SDS011;400;53.550;9.932;2024-03-22T05:16:24;39.37;;;30.03;;
836;SDS011;400;53.550;9.932;2024-03-22T05:18:51;35.00;;;29.77;;
836;SDS011;400;53.550;9.932;2024-03-22T05:21:16;48.53;;;40.17;;
836;SDS011;400;53.550;9.932;2024-03-22T05:23:43;36.40;;;28.27;;
836;SDS011;400;53.550;9.932;2024-03-22T05:26:09;36.43;;;29.43;;
836;SDS011;400;53.550;9.932;2024-03-22T05:28:36;34.80;;;28.33;;
836;SDS011;400;53.550;9.932;2024-03-22T05:31:02;38.10;;;31.43;;
836;SDS011;400;53.550;9.932;2024-03-22T05:33:30;36.53;;;27.57;;
836;SDS011;400;53.550;9.932;2024-03-22T05:35:57;36.13;;;28.93;;
836;SDS011;400;53.550;9.932;2024-03-22T05:38:24;35.90;;;30.30;;
836;SDS011;400;53.550;9.932;2024-03-22T05:40:49;39.93;;;28.00;;
836;SDS011;400;53.550;9.932;2024-03-22T05:43:16;41.40;;;29.93;;
836;SDS011;400;53.550;9.932;2024-03-22T05:45:42;36.43;;;28.97;;
836;SDS011;400;53.550;9.932;2024-03-22T05:48:09;35.93;;;26.17;;
836;SDS011;400;53.550;9.932;2024-03-22T05:50:37;33.10;;;27.70;;
836;SDS011;400;53.550;9.932;2024-03-22T05:53:09;34.87;;;27.77;;
836;SDS011;400;53.550;9.932;2024-03-22T05:55:38;39.47;;;30.33;;
836;SDS011;400;53.550;9.932;2024-03-22T05:58:05;38.13;;;29.97;;
836;SDS011;400;53.550;9.932;2024-03-22T06:00:30;37.43;;;30.13;;
836;SDS011;400;53.550;9.932;2024-03-22T06:02:58;38.87;;;31.10;;
836;SDS011;400;53.550;9.932;2024-03-22T06:05:24;39.87;;;30.67;;
836;SDS011;400;53.550;9.932;2024-03-22T06:07:52;37.10;;;28.97;;
836;SDS011;400;53.550;9.932;2024-03-22T06:10:18;36.07;;;29.30;;
836;SDS011;400;53.550;9.932;2024-03-22T06:12:45;40.90;;;31.87;;
836;SDS011;400;53.550;9.932;2024-03-22T06:15:12;39.20;;;31.30;;
836;SDS011;400;53.550;9.932;2024-03-22T06:17:39;40.40;;;31.20;;
836;SDS011;400;53.550;9.932;2024-03-22T06:20:07;39.43;;;30.47;;
836;SDS011;400;53.550;9.932;2024-03-22T06:22:34;37.93;;;30.23;;
836;SDS011;400;53.550;9.932;2024-03-22T06:25:02;38.10;;;31.87;;
836;SDS011;400;53.550;9.932;2024-03-22T06:27:30;38.10;;;29.33;;
836;SDS011;400;53.550;9.932;2024-03-22T06:29:58;39.93;;;29.87;;
836;SDS011;400;53.550;9.932;2024-03-22T06:32:25;40.17;;;31.50;;
836;SDS011;400;53.550;9.932;2024-03-22T06:34:50;44.67;;;33.03;;
836;SDS011;400;53.550;9.932;2024-03-22T06:37:19;38.40;;;30.07;;
836;SDS011;400;53.550;9.932;2024-03-22T06:39:47;40.57;;;31.40;;
836;SDS011;400;53.550;9.932;2024-03-22T06:42:17;37.73;;;30.80;;
836;SDS011;400;53.550;9.932;2024-03-22T06:44:43;39.87;;;32.80;;
836;SDS011;400;53.550;9.932;2024-03-22T06:47:09;43.00;;;32.60;;
836;SDS011;400;53.550;9.932;2024-03-22T06:49:35;40.50;;;31.10;;
836;SDS011;400;53.550;9.932;2024-03-22T06:52:02;39.30;;;31.50;;
836;SDS011;400;53.550;9.932;2024-03-22T06:54:28;38.67;;;31.03;;
836;SDS011;400;53.550;9.932;2024-03-22T06:56:55;41.70;;;34.90;;
836;SDS011;400;53.550;9.932;2024-03-22T06:59:22;41.00;;;31.47;;
836;SDS011;400;53.550;9.932;2024-03-22T07:01:49;43.70;;;33.63;;
836;SDS011;400;53.550;9.932;2024-03-22T07:04:15;41.03;;;31.80;;
836;SDS011;400;53.550;9.932;2024-03-22T07:06:43;46.10;;;33.53;;
836;SDS011;400;53.550;9.932;2024-03-22T07:09:15;49.07;;;32.73;;
836;SDS011;400;53.550;9.932;2024-03-22T07:11:43;43.27;;;32.70;;
836;SDS011;400;53.550;9.932;2024-03-22T07:14:10;42.63;;;33.10;;
836;SDS011;400;53.550;9.932;2024-03-22T07:16:39;45.10;;;34.00;;
836;SDS011;400;53.550;9.932;2024-03-22T07:19:06;41.00;;;33.30;;
836;SDS011;400;53.550;9.932;2024-03-22T07:21:33;40.40;;;32.57;;
836;SDS011;400;53.550;9.932;2024-03-22T07:24:00;38.27;;;31.57;;
836;SDS011;400;53.550;9.932;2024-03-22T07:26:26;39.97;;;31.60;;
836;SDS011;400;53.550;9.932;2024-03-22T07:28:56;42.67;;;34.10;;
836;SDS011;400;53.550;9.932;2024-03-22T07:31:22;42.80;;;32.80;;
836;SDS011;400;53.550;9.932;2024-03-22T07:33:50;41.70;;;33.23;;
836;SDS011;400;53.550;9.932;2024-03-22T07:36:18;40.80;;;33.03;;
836;SDS011;400;53.550;9.932;2024-03-22T07:38:45;40.17;;;31.93;;
836;SDS011;400;53.550;9.932;2024-03-22T07:41:11;43.07;;;33.47;;
836;SDS011;400;53.550;9.932;2024-03-22T07:43:38;44.90;;;34.60;;
836;SDS011;400;53.550;9.932;2024-03-22T07:46:03;44.40;;;35.90;;
836;SDS011;400;53.550;9.932;2024-03-22T07:48:30;44.20;;;33.90;;
836;SDS011;400;53.550;9.932;2024-03-22T07:50:57;43.33;;;35.03;;
836;SDS011;400;53.550;9.932;2024-03-22T07:53:24;41.40;;;33.20;;
836;SDS011;400;53.550;9.932;2024-03-22T07:55:50;44.63;;;34.30;;
836;SDS011;400;53.550;9.932;2024-03-22T07:58:17;44.70;;;35.63;;
836;SDS011;400;53.550;9.932;2024-03-22T08:00:44;43.03;;;33.40;;
836;SDS011;400;53.550;9.932;2024-03-22T08:03:13;47.40;;;37.90;;
836;SDS011;400;53.550;9.932;2024-03-22T08:05:40;46.47;;;36.10;;
836;SDS011;400;53.550;9.932;2024-03-22T08:08:08;44.07;;;34.17;;
836;SDS011;400;53.550;9.932;2024-03-22T08:10:34;48.23;;;35.97;;
836;SDS011;400;53.550;9.932;2024-03-22T08:13:00;50.53;;;36.93;;
836;SDS011;400;53.550;9.932;2024-03-22T08:15:26;49.90;;;37.07;;
836;SDS011;400;53.550;9.932;2024-03-22T08:17:53;47.30;;;37.10;;
836;SDS011;400;53.550;9.932;2024-03-22T08:20:20;45.60;;;35.57;;
836;SDS011;400;53.550;9.932;2024-03-22T08:22:47;46.30;;;36.63;;
836;SDS011;400;53.550;9.932;2024-03-22T08:25:14;46.70;;;36.50;;
836;SDS011;400;53.550;9.932;2024-03-22T08:27:42;47.77;;;38.80;;
836;SDS011;400;53.550;9.932;2024-03-22T08:30:08;53.77;;;39.07;;
836;SDS011;400;53.550;9.932;2024-03-22T08:32:36;44.33;;;33.80;;
836;SDS011;400;53.550;9.932;2024-03-22T08:35:02;47.40;;;33.73;;
836;SDS011;400;53.550;9.932;2024-03-22T08:37:29;48.00;;;34.97;;
836;SDS011;400;53.550;9.932;2024-03-22T08:39:56;54.10;;;40.80;;
836;SDS011;400;53.550;9.932;2024-03-22T08:45:16;49.23;;;36.47;;
836;SDS011;400;53.550;9.932;2024-03-22T08:47:49;49.03;;;37.97;;
836;SDS011;400;53.550;9.932;2024-03-22T08:50:16;52.17;;;37.90;;
836;SDS011;400;53.550;9.932;2024-03-22T08:52:44;48.53;;;36.63;;
836;SDS011;400;53.550;9.932;2024-03-22T08:55:11;51.23;;;36.70;;
836;SDS011;400;53.550;9.932;2024-03-22T08:57:41;49.53;;;38.03;;
836;SDS011;400;53.550;9.932;2024-03-22T09:00:09;49.27;;;38.90;;
836;SDS011;400;53.550;9.932;2024-03-22T09:02:40;51.63;;;38.70;;
836;SDS011;400;53.550;9.932;2024-03-22T09:05:11;51.77;;;39.50;;
836;SDS011;400;53.550;9.932;2024-03-22T09:07:40;54.33;;;38.50;;
836;SDS011;400;53.550;9.932;2024-03-22T09:10:06;51.60;;;39.37;;
836;SDS011;400;53.550;9.932;2024-03-22T09:12:34;54.73;;;39.10;;
836;SDS011;400;53.550;9.932;2024-03-22T09:15:01;58.10;;;41.87;;
836;SDS011;400;53.550;9.932;2024-03-22T09:17:28;53.17;;;40.50;;
836;SDS011;400;53.550;9.932;2024-03-22T09:19:54;54.30;;;38.00;;
836;SDS011;400;53.550;9.932;2024-03-22T09:22:22;54.80;;;39.30;;
836;SDS011;400;53.550;9.932;2024-03-22T09:24:48;52.60;;;38.20;;
836;SDS011;400;53.550;9.932;2024-03-22T09:27:15;53.27;;;37.80;;
836;SDS011;400;53.550;9.932;2024-03-22T09:29:41;47.27;;;36.30;;
836;SDS011;400;53.550;9.932;2024-03-22T09:32:10;47.53;;;35.10;;
836;SDS011;400;53.550;9.932;2024-03-22T09:34:35;44.13;;;32.27;;
836;SDS011;400;53.550;9.932;2024-03-22T09:37:02;43.73;;;34.90;;
836;SDS011;400;53.550;9.932;2024-03-22T09:39:29;39.13;;;31.80;;
836;SDS011;400;53.550;9.932;2024-03-22T09:41:57;37.40;;;32.17;;
836;SDS011;400;53.550;9.932;2024-03-22T09:44:24;43.50;;;34.47;;
836;SDS011;400;53.550;9.932;2024-03-22T09:46:53;50.20;;;38.80;;
836;SDS011;400;53.550;9.932;2024-03-22T09:49:21;43.90;;;32.60;;
836;SDS011;400;53.550;9.932;2024-03-22T09:51:48;38.50;;;31.10;;
836;SDS011;400;53.550;9.932;2024-03-22T09:54:18;44.40;;;32.47;;
836;SDS011;400;53.550;9.932;2024-03-22T09:56:47;42.90;;;31.10;;
836;SDS011;400;53.550;9.932;2024-03-22T09:59:15;41.63;;;33.17;;
836;SDS011;400;53.550;9.932;2024-03-22T10:01:47;45.47;;;32.10;;
836;SDS011;400;53.550;9.932;2024-03-22T10:04:18;44.43;;;32.30;;
836;SDS011;400;53.550;9.932;2024-03-22T10:06:48;42.30;;;32.50;;
836;SDS011;400;53.550;9.932;2024-03-22T10:09:15;41.67;;;34.90;;
836;SDS011;400;53.550;9.932;2024-03-22T10:11:44;44.03;;;33.20;;
836;SDS011;400;53.550;9.932;2024-03-22T10:14:13;47.73;;;34.73;;
836;SDS011;400;53.550;9.932;2024-03-22T10:16:40;48.00;;;35.47;;
836;SDS011;400;53.550;9.932;2024-03-22T10:19:06;39.50;;;29.30;;
836;SDS011;400;53.550;9.932;2024-03-22T10:21:34;36.60;;;30.33;;
836;SDS011;400;53.550;9.932;2024-03-22T10:24:04;39.43;;;30.20;;
836;SDS011;400;53.550;9.932;2024-03-22T10:26:32;36.83;;;27.30;;
836;SDS011;400;53.550;9.932;2024-03-22T10:28:58;34.90;;;27.73;;
836;SDS011;400;53.550;9.932;2024-03-22T10:31:26;34.63;;;27.70;;
836;SDS011;400;53.550;9.932;2024-03-22T10:33:56;29.40;;;24.83;;
836;SDS011;400;53.550;9.932;2024-03-22T10:36:26;32.40;;;25.27;;
836;SDS011;400;53.550;9.932;2024-03-22T10:38:56;36.73;;;26.57;;
836;SDS011;400;53.550;9.932;2024-03-22T10:41:25;32.80;;;25.93;;
836;SDS011;400;53.550;9.932;2024-03-22T10:43:53;29.17;;;23.17;;
836;SDS011;400;53.550;9.932;2024-03-22T10:46:25;29.17;;;24.17;;
836;SDS011;400;53.550;9.932;2024-03-22T10:48:54;22.30;;;17.13;;
836;SDS011;400;53.550;9.932;2024-03-22T10:51:22;24.73;;;19.23;;
836;SDS011;400;53.550;9.932;2024-03-22T10:53:49;20.23;;;16.93;;
836;SDS011;400;53.550;9.932;2024-03-22T10:56:19;20.70;;;15.70;;
836;SDS011;400;53.550;9.932;2024-03-22T10:58:50;21.17;;;17.23;;
836;SDS011;400;53.550;9.932;2024-03-22T11:01:22;20.10;;;15.53;;
836;SDS011;400;53.550;9.932;2024-03-22T11:03:49;19.30;;;15.10;;
836;SDS011;400;53.550;9.932;2024-03-22T11:06:19;17.30;;;14.43;;
836;SDS011;400;53.550;9.932;2024-03-22T11:08:49;19.13;;;14.53;;
836;SDS011;400;53.550;9.932;2024-03-22T11:11:17;16.40;;;13.10;;
836;SDS011;400;53.550;9.932;2024-03-22T11:13:46;13.17;;;11.70;;
836;SDS011;400;53.550;9.932;2024-03-22T11:16:15;13.40;;;12.03;;
836;SDS011;400;53.550;9.932;2024-03-22T11:18:42;13.33;;;11.63;;
836;SDS011;400;53.550;9.932;2024-03-22T11:21:10;11.83;;;10.63;;
836;SDS011;400;53.550;9.932;2024-03-22T11:23:40;13.07;;;11.67;;
836;SDS011;400;53.550;9.932;2024-03-22T11:26:14;12.07;;;10.80;;
836;SDS011;400;53.550;9.932;2024-03-22T11:28:43;12.20;;;10.53;;
836;SDS011;400;53.550;9.932;2024-03-22T11:31:10;13.33;;;12.00;;
836;SDS011;400;53.550;9.932;2024-03-22T11:33:43;14.07;;;11.70;;
836;SDS011;400;53.550;9.932;2024-03-22T11:36:13;12.63;;;11.27;;
836;SDS011;400;53.550;9.932;2024-03-22T11:38:42;12.73;;;11.20;;
836;SDS011;400;53.550;9.932;2024-03-22T11:41:15;12.90;;;11.60;;
836;SDS011;400;53.550;9.932;2024-03-22T11:43:46;16.90;;;13.97;;
836;SDS011;400;53.550;9.932;2024-03-22T11:46:16;15.53;;;13.23;;
836;SDS011;400;53.550;9.932;2024-03-22T11:48:43;14.77;;;13.37;;
836;SDS011;400;53.550;9.932;2024-03-22T11:51:10;14.23;;;12.73;;
836;SDS011;400;53.550;9.932;2024-03-22T11:53:36;14.37;;;12.83;;
836;SDS011;400;53.550;9.932;2024-03-22T11:56:03;14.37;;;12.90;;
836;SDS011;400;53.550;9.932;2024-03-22T11:58:31;15.50;;;12.40;;
836;SDS011;400;53.550;9.932;2024-03-22T12:01:02;14.97;;;13.50;;
836;SDS011;400;53.550;9.932;2024-03-22T12:03:31;16.07;;;13.23;;
836;SDS011;400;53.550;9.932;2024-03-22T12:05:59;15.00;;;13.43;;
836;SDS011;400;53.550;9.932;2024-03-22T12:08:26;15.50;;;13.70;;
836;SDS011;400;53.550;9.932;2024-03-22T12:10:59;14.33;;;12.07;;
836;SDS011;400;53.550;9.932;2024-03-22T12:13:26;13.73;;;12.30;;
836;SDS011;400;53.550;9.932;2024-03-22T12:15:53;14.47;;;12.77;;
836;SDS011;400;53.550;9.932;2024-03-22T12:18:19;12.40;;;11.20;;
836;SDS011;400;53.550;9.932;2024-03-22T12:20:49;13.97;;;12.50;;
836;SDS011;400;53.550;9.932;2024-03-22T12:23:18;16.07;;;11.53;;
836;SDS011;400;53.550;9.932;2024-03-22T12:25:45;12.30;;;11.10;;
836;SDS011;400;53.550;9.932;2024-03-22T12:28:11;13.30;;;11.43;;
836;SDS011;400;53.550;9.932;2024-03-22T12:30:39;14.63;;;12.80;;
836;SDS011;400;53.550;9.932;2024-03-22T12:33:05;13.60;;;10.97;;
836;SDS011;400;53.550;9.932;2024-03-22T12:35:35;10.77;;;9.23;;
836;SDS011;400;53.550;9.932;2024-03-22T12:38:01;11.63;;;10.43;;
836;SDS011;400;53.550;9.932;2024-03-22T12:40:30;11.67;;;10.47;;
836;SDS011;400;53.550;9.932;2024-03-22T12:42:57;12.03;;;9.80;;
836;SDS011;400;53.550;9.932;2024-03-22T12:45:24;11.60;;;9.33;;
836;SDS011;400;53.550;9.932;2024-03-22T12:47:50;10.63;;;9.57;;
836;SDS011;400;53.550;9.932;2024-03-22T12:50:17;12.90;;;10.67;;
836;SDS011;400;53.550;9.932;2024-03-22T12:52:43;9.00;;;8.10;;
836;SDS011;400;53.550;9.932;2024-03-22T12:55:10;7.67;;;6.90;;
836;SDS011;400;53.550;9.932;2024-03-22T12:57:37;8.00;;;7.20;;
836;SDS011;400;53.550;9.932;2024-03-22T13:00:06;6.30;;;5.70;;
836;SDS011;400;53.550;9.932;2024-03-22T13:02:39;7.37;;;6.67;;
836;SDS011;400;53.550;9.932;2024-03-22T13:05:10;7.67;;;6.87;;
836;SDS011;400;53.550;9.932;2024-03-22T13:07:36;6.20;;;5.60;;
836;SDS011;400;53.550;9.932;2024-03-22T13:10:03;4.90;;;4.50;;
836;SDS011;400;53.550;9.932;2024-03-22T13:12:29;3.23;;;3.03;;
836;SDS011;400;53.550;9.932;2024-03-22T13:15:00;3.50;;;3.20;;
836;SDS011;400;53.550;9.932;2024-03-22T13:17:26;4.90;;;4.50;;
836;SDS011;400;53.550;9.932;2024-03-22T13:19:55;3.30;;;3.00;;
836;SDS011;400;53.550;9.932;2024-03-22T13:22:24;3.77;;;3.47;;
836;SDS011;400;53.550;9.932;2024-03-22T13:24:51;4.17;;;3.87;;
836;SDS011;400;53.550;9.932;2024-03-22T13:27:16;4.30;;;4.00;;
836;SDS011;400;53.550;9.932;2024-03-22T13:29:45;4.93;;;4.63;;
836;SDS011;400;53.550;9.932;2024-03-22T13:32:12;5.30;;;4.80;;
836;SDS011;400;53.550;9.932;2024-03-22T13:34:39;5.87;;;5.40;;
836;SDS011;400;53.550;9.932;2024-03-22T13:37:07;5.87;;;5.37;;
836;SDS011;400;53.550;9.932;2024-03-22T13:39:35;6.10;;;5.60;;
836;SDS011;400;53.550;9.932;2024-03-22T13:42:03;4.07;;;3.77;;
836;SDS011;400;53.550;9.932;2024-03-22T13:44:32;3.90;;;3.60;;
836;SDS011;400;53.550;9.932;2024-03-22T13:46:57;2.80;;;2.60;;
836;SDS011;400;53.550;9.932;2024-03-22T13:49:26;2.93;;;2.73;;
836;SDS011;400;53.550;9.932;2024-03-22T13:51:53;2.67;;;2.47;;
836;SDS011;400;53.550;9.932;2024-03-22T13:54:20;4.27;;;2.50;;
836;SDS011;400;53.550;9.932;2024-03-22T13:56:47;2.63;;;2.43;;
836;SDS011;400;53.550;9.932;2024-03-22T13:59:19;2.70;;;2.50;;
836;SDS011;400;53.550;9.932;2024-03-22T14:01:49;2.60;;;2.40;;
836;SDS011;400;53.550;9.932;2024-03-22T14:04:22;2.87;;;2.67;;
836;SDS011;400;53.550;9.932;2024-03-22T14:06:50;2.30;;;2.10;;
836;SDS011;400;53.550;9.932;2024-03-22T14:09:17;2.17;;;2.07;;
836;SDS011;400;53.550;9.932;2024-03-22T14:11:45;2.43;;;2.23;;
836;SDS011;400;53.550;9.932;2024-03-22T14:14:14;3.17;;;2.37;;
836;SDS011;400;53.550;9.932;2024-03-22T14:16:40;2.83;;;2.63;;
836;SDS011;400;53.550;9.932;2024-03-22T14:19:09;2.90;;;2.70;;
836;SDS011;400;53.550;9.932;2024-03-22T14:21:37;2.73;;;2.53;;
836;SDS011;400;53.550;9.932;2024-03-22T14:24:12;2.60;;;2.40;;
836;SDS011;400;53.550;9.932;2024-03-22T14:26:39;2.30;;;2.10;;
836;SDS011;400;53.550;9.932;2024-03-22T14:29:08;2.23;;;2.03;;
836;SDS011;400;53.550;9.932;2024-03-22T14:31:36;1.57;;;1.47;;
836;SDS011;400;53.550;9.932;2024-03-22T14:34:05;2.63;;;2.20;;
836;SDS011;400;53.550;9.932;2024-03-22T14:36:33;2.73;;;2.53;;
836;SDS011;400;53.550;9.932;2024-03-22T14:39:05;3.90;;;2.50;;
836;SDS011;400;53.550;9.932;2024-03-22T14:41:36;5.83;;;2.10;;
836;SDS011;400;53.550;9.932;2024-03-22T14:44:05;5.30;;;2.47;;
836;SDS011;400;53.550;9.932;2024-03-22T14:46:37;5.30;;;2.30;;
836;SDS011;400;53.550;9.932;2024-03-22T14:49:08;3.83;;;2.90;;
836;SDS011;400;53.550;9.932;2024-03-22T14:51:35;6.77;;;2.80;;
836;SDS011;400;53.550;9.932;2024-03-22T14:54:03;8.60;;;2.87;;
836;SDS011;400;53.550;9.932;2024-03-22T14:56:29;4.53;;;2.40;;
836;SDS011;400;53.550;9.932;2024-03-22T14:59:00;7.83;;;2.90;;
836;SDS011;400;53.550;9.932;2024-03-22T15:01:28;7.13;;;3.10;;
836;SDS011;400;53.550;9.932;2024-03-22T15:04:00;6.97;;;2.87;;
836;SDS011;400;53.550;9.932;2024-03-22T15:06:26;9.53;;;3.20;;
836;SDS011;400;53.550;9.932;2024-03-22T15:08:53;15.60;;;3.20;;
836;SDS011;400;53.550;9.932;2024-03-22T15:11:19;11.57;;;3.87;;
836;SDS011;400;53.550;9.932;2024-03-22T15:13:46;9.57;;;3.60;;
836;SDS011;400;53.550;9.932;2024-03-22T15:16:13;16.60;;;3.87;;
836;SDS011;400;53.550;9.932;2024-03-22T15:18:41;9.20;;;3.90;;
836;SDS011;400;53.550;9.932;2024-03-22T15:21:09;10.00;;;4.10;;
836;SDS011;400;53.550;9.932;2024-03-22T15:23:41;11.83;;;3.90;;
836;SDS011;400;53.550;9.932;2024-03-22T15:26:09;10.83;;;3.77;;